sensor_id;sensor_type;location;lat;lon;timestamp;temperature;humidity
29731;DHT22;16639;51.488;0.152;2023-07-29T00:02:15;18.70;99.90
29731;DHT22;16639;51.488;0.152;2023-07-29T00:04:42;18.70;99.90
29731;DHT22;16639;51.488;0.152;2023-07-29T00:07:11;18.80;99.90
29731;DHT22;16639;51.488;0.152;2023-07-29T00:09:40;18.70;99.90
29731;DHT22;16639;51.488;0.152;2023-07-29T00:12:07;18.70;99.90
29731;DHT22;16639;51.488;0.152;2023-07-29T00:14:36;18.80;99.90
29731;DHT22;16639;51.488;0.152;2023-07-29T00:17:04;18.80;99.90
29731;DHT22;16639;51.488;0.152;2023-07-29T00:19:31;18.80;99.90
29731;DHT22;16639;51.488;0.152;2023-07-29T00:21:59;18.70;99.90
29731;DHT22;16639;51.488;0.152;2023-07-29T00:24:27;18.70;99.90
29731;DHT22;16639;51.488;0.152;2023-07-29T00:26:54;18.70;99.90
29731;DHT22;16639;51.488;0.152;2023-07-29T00:29:22;18.50;99.90
29731;DHT22;16639;51.488;0.152;2023-07-29T00:31:50;18.60;99.90
29731;DHT22;16639;51.488;0.152;2023-07-29T00:34:17;18.60;99.90
29731;DHT22;16639;51.488;0.152;2023-07-29T00:36:46;18.60;99.90
29731;DHT22;16639;51.488;0.152;2023-07-29T00:39:15;18.60;99.90
29731;DHT22;16639;51.488;0.152;2023-07-29T00:41:42;18.60;99.90
29731;DHT22;16639;51.488;0.152;2023-07-29T00:44:10;18.60;99.90
29731;DHT22;16639;51.488;0.152;2023-07-29T00:46:38;18.60;99.90
29731;DHT22;16639;51.488;0.152;2023-07-29T00:49:06;18.60;99.90
29731;DHT22;16639;51.488;0.152;2023-07-29T00:51:34;18.60;99.90
29731;DHT22;16639;51.488;0.152;2023-07-29T00:54:01;18.60;99.90
29731;DHT22;16639;51.488;0.152;2023-07-29T00:56:29;18.60;99.90
29731;DHT22;16639;51.488;0.152;2023-07-29T00:58:57;18.50;99.90
29731;DHT22;16639;51.488;0.152;2023-07-29T01:01:29;18.50;99.90
29731;DHT22;16639;51.488;0.152;2023-07-29T01:03:57;18.50;99.90
29731;DHT22;16639;51.488;0.152;2023-07-29T01:09:51;18.50;99.90
29731;DHT22;16639;51.488;0.152;2023-07-29T01:17:59;18.40;99.90
29731;DHT22;16639;51.488;0.152;2023-07-29T01:20:27;18.40;99.90
29731;DHT22;16639;51.488;0.152;2023-07-29T01:22:55;18.40;99.90
29731;DHT22;16639;51.488;0.152;2023-07-29T01:25:22;18.40;99.90
29731;DHT22;16639;51.488;0.152;2023-07-29T01:27:51;18.40;99.90
29731;DHT22;16639;51.488;0.152;2023-07-29T01:30:20;18.40;99.90
29731;DHT22;16639;51.488;0.152;2023-07-29T01:32:56;18.00;99.90
29731;DHT22;16639;51.488;0.152;2023-07-29T01:38:23;18.40;99.90
29731;DHT22;16639;51.488;0.152;2023-07-29T01:40:52;18.40;99.90
29731;DHT22;16639;51.488;0.152;2023-07-29T01:43:21;18.40;99.90
29731;DHT22;16639;51.488;0.152;2023-07-29T01:45:51;18.40;99.90
29731;DHT22;16639;51.488;0.152;2023-07-29T01:48:18;18.40;99.90
29731;DHT22;16639;51.488;0.152;2023-07-29T01:50:45;18.40;99.90
29731;DHT22;16639;51.488;0.152;2023-07-29T01:53:13;18.40;99.90
29731;DHT22;16639;51.488;0.152;2023-07-29T01:55:42;18.40;99.90
29731;DHT22;16639;51.488;0.152;2023-07-29T01:58:09;18.40;99.90
29731;DHT22;16639;51.488;0.152;2023-07-29T02:00:37;18.30;99.90
29731;DHT22;16639;51.488;0.152;2023-07-29T02:03:04;18.30;99.90
29731;DHT22;16639;51.488;0.152;2023-07-29T02:05:31;18.30;99.90
29731;DHT22;16639;51.488;0.152;2023-07-29T02:07:59;18.20;99.90
29731;DHT22;16639;51.488;0.152;2023-07-29T02:10:26;18.20;99.90
29731;DHT22;16639;51.488;0.152;2023-07-29T02:12:56;18.30;99.90
29731;DHT22;16639;51.488;0.152;2023-07-29T02:15:24;18.30;99.90
29731;DHT22;16639;51.488;0.152;2023-07-29T02:17:51;18.30;99.90
29731;DHT22;16639;51.488;0.152;2023-07-29T02:20:20;18.30;99.90
29731;DHT22;16639;51.488;0.152;2023-07-29T02:22:47;18.20;99.90
29731;DHT22;16639;51.488;0.152;2023-07-29T02:25:15;18.20;99.90
29731;DHT22;16639;51.488;0.152;2023-07-29T02:27:43;18.20;99.90
29731;DHT22;16639;51.488;0.152;2023-07-29T02:30:11;18.20;99.90
29731;DHT22;16639;51.488;0.152;2023-07-29T02:32:39;18.20;99.90
29731;DHT22;16639;51.488;0.152;2023-07-29T02:35:07;18.10;99.90
29731;DHT22;16639;51.488;0.152;2023-07-29T02:37:35;18.20;99.90
29731;DHT22;16639;51.488;0.152;2023-07-29T02:40:02;18.20;99.90
29731;DHT22;16639;51.488;0.152;2023-07-29T02:42:31;18.20;99.90
29731;DHT22;16639;51.488;0.152;2023-07-29T02:44:59;18.10;99.90
29731;DHT22;16639;51.488;0.152;2023-07-29T02:47:26;18.10;99.90
29731;DHT22;16639;51.488;0.152;2023-07-29T02:49:54;18.10;99.90
29731;DHT22;16639;51.488;0.152;2023-07-29T02:52:21;18.10;99.90
29731;DHT22;16639;51.488;0.152;2023-07-29T02:54:49;18.10;99.90
29731;DHT22;16639;51.488;0.152;2023-07-29T02:57:16;18.10;99.90
29731;DHT22;16639;51.488;0.152;2023-07-29T02:59:44;18.00;99.90
29731;DHT22;16639;51.488;0.152;2023-07-29T03:02:13;18.10;99.90
29731;DHT22;16639;51.488;0.152;2023-07-29T03:04:43;18.00;99.90
29731;DHT22;16639;51.488;0.152;2023-07-29T03:07:10;18.00;99.90
29731;DHT22;16639;51.488;0.152;2023-07-29T03:09:38;18.00;99.90
29731;DHT22;16639;51.488;0.152;2023-07-29T03:12:08;18.10;99.90
29731;DHT22;16639;51.488;0.152;2023-07-29T03:14:35;18.00;99.90
29731;DHT22;16639;51.488;0.152;2023-07-29T03:17:03;18.00;99.90
29731;DHT22;16639;51.488;0.152;2023-07-29T03:19:33;17.80;99.90
29731;DHT22;16639;51.488;0.152;2023-07-29T03:22:02;18.60;99.90
29731;DHT22;16639;51.488;0.152;2023-07-29T03:24:30;18.00;99.90
29731;DHT22;16639;51.488;0.152;2023-07-29T03:26:57;18.00;99.90
29731;DHT22;16639;51.488;0.152;2023-07-29T03:29:24;18.00;99.90
29731;DHT22;16639;51.488;0.152;2023-07-29T03:31:52;17.80;99.90
29731;DHT22;16639;51.488;0.152;2023-07-29T03:34:19;18.00;99.90
29731;DHT22;16639;51.488;0.152;2023-07-29T03:36:47;18.10;99.90
29731;DHT22;16639;51.488;0.152;2023-07-29T03:39:15;18.00;99.90
29731;DHT22;16639;51.488;0.152;2023-07-29T03:41:42;18.00;99.90
29731;DHT22;16639;51.488;0.152;2023-07-29T03:44:09;18.00;99.90
29731;DHT22;16639;51.488;0.152;2023-07-29T03:46:37;18.00;99.90
29731;DHT22;16639;51.488;0.152;2023-07-29T03:49:05;18.00;99.90
29731;DHT22;16639;51.488;0.152;2023-07-29T03:51:33;18.00;99.90
29731;DHT22;16639;51.488;0.152;2023-07-29T03:54:00;18.00;99.90
29731;DHT22;16639;51.488;0.152;2023-07-29T03:56:28;18.00;99.90
29731;DHT22;16639;51.488;0.152;2023-07-29T03:59:05;18.00;99.90
29731;DHT22;16639;51.488;0.152;2023-07-29T04:01:33;17.90;99.90
29731;DHT22;16639;51.488;0.152;2023-07-29T04:04:00;17.90;99.90
29731;DHT22;16639;51.488;0.152;2023-07-29T04:06:28;17.90;99.90
29731;DHT22;16639;51.488;0.152;2023-07-29T04:08:56;17.90;99.90
29731;DHT22;16639;51.488;0.152;2023-07-29T04:11:23;17.90;99.90
29731;DHT22;16639;51.488;0.152;2023-07-29T04:13:51;17.80;99.90
29731;DHT22;16639;51.488;0.152;2023-07-29T04:16:19;17.80;99.90
29731;DHT22;16639;51.488;0.152;2023-07-29T04:18:46;17.90;99.90
29731;DHT22;16639;51.488;0.152;2023-07-29T04:21:13;17.80;99.90
29731;DHT22;16639;51.488;0.152;2023-07-29T04:23:41;17.80;99.90
29731;DHT22;16639;51.488;0.152;2023-07-29T04:26:08;17.80;99.90
29731;DHT22;16639;51.488;0.152;2023-07-29T04:28:36;17.80;99.90
29731;DHT22;16639;51.488;0.152;2023-07-29T04:31:03;17.80;99.90
29731;DHT22;16639;51.488;0.152;2023-07-29T04:33:31;17.80;99.90
29731;DHT22;16639;51.488;0.152;2023-07-29T04:36:03;17.80;99.90
29731;DHT22;16639;51.488;0.152;2023-07-29T04:38:31;17.80;99.90
29731;DHT22;16639;51.488;0.152;2023-07-29T04:41:02;17.70;99.90
29731;DHT22;16639;51.488;0.152;2023-07-29T04:43:32;17.80;99.90
29731;DHT22;16639;51.488;0.152;2023-07-29T04:46:00;17.80;99.90
29731;DHT22;16639;51.488;0.152;2023-07-29T04:48:28;17.80;99.90
29731;DHT22;16639;51.488;0.152;2023-07-29T04:50:56;17.80;99.90
29731;DHT22;16639;51.488;0.152;2023-07-29T04:53:24;17.70;99.90
29731;DHT22;16639;51.488;0.152;2023-07-29T04:55:51;17.70;99.90
29731;DHT22;16639;51.488;0.152;2023-07-29T04:58:19;17.70;99.90
29731;DHT22;16639;51.488;0.152;2023-07-29T05:00:47;17.80;99.90
29731;DHT22;16639;51.488;0.152;2023-07-29T05:03:14;17.80;99.90
29731;DHT22;16639;51.488;0.152;2023-07-29T05:05:42;17.80;99.90
29731;DHT22;16639;51.488;0.152;2023-07-29T05:08:09;17.70;99.90
29731;DHT22;16639;51.488;0.152;2023-07-29T05:10:36;17.70;99.90
29731;DHT22;16639;51.488;0.152;2023-07-29T05:13:04;17.60;99.90
29731;DHT22;16639;51.488;0.152;2023-07-29T05:15:31;17.60;99.90
29731;DHT22;16639;51.488;0.152;2023-07-29T05:17:59;18.10;99.90
29731;DHT22;16639;51.488;0.152;2023-07-29T05:20:27;17.60;99.90
29731;DHT22;16639;51.488;0.152;2023-07-29T05:22:54;17.70;99.90
29731;DHT22;16639;51.488;0.152;2023-07-29T05:25:23;17.60;99.90
29731;DHT22;16639;51.488;0.152;2023-07-29T05:27:50;17.70;99.90
29731;DHT22;16639;51.488;0.152;2023-07-29T05:30:18;17.70;99.90
29731;DHT22;16639;51.488;0.152;2023-07-29T05:32:46;17.80;99.90
29731;DHT22;16639;51.488;0.152;2023-07-29T05:35:13;17.70;99.90
29731;DHT22;16639;51.488;0.152;2023-07-29T05:37:41;17.80;99.90
29731;DHT22;16639;51.488;0.152;2023-07-29T05:40:09;17.80;99.90
29731;DHT22;16639;51.488;0.152;2023-07-29T05:42:37;17.70;99.90
29731;DHT22;16639;51.488;0.152;2023-07-29T05:45:05;17.70;99.90
29731;DHT22;16639;51.488;0.152;2023-07-29T05:47:33;17.70;99.90
29731;DHT22;16639;51.488;0.152;2023-07-29T05:50:01;17.70;99.90
29731;DHT22;16639;51.488;0.152;2023-07-29T05:52:32;17.50;99.90
29731;DHT22;16639;51.488;0.152;2023-07-29T05:54:59;17.70;99.90
29731;DHT22;16639;51.488;0.152;2023-07-29T05:57:27;17.70;99.90
29731;DHT22;16639;51.488;0.152;2023-07-29T05:59:55;17.80;99.90
29731;DHT22;16639;51.488;0.152;2023-07-29T06:02:22;17.80;99.90
29731;DHT22;16639;51.488;0.152;2023-07-29T06:04:50;17.80;99.90
29731;DHT22;16639;51.488;0.152;2023-07-29T06:07:17;17.80;99.90
29731;DHT22;16639;51.488;0.152;2023-07-29T06:09:46;17.80;99.90
29731;DHT22;16639;51.488;0.152;2023-07-29T06:12:13;17.80;99.90
29731;DHT22;16639;51.488;0.152;2023-07-29T06:14:41;17.80;99.90
29731;DHT22;16639;51.488;0.152;2023-07-29T06:17:08;17.80;99.90
29731;DHT22;16639;51.488;0.152;2023-07-29T06:19:38;17.80;99.90
29731;DHT22;16639;51.488;0.152;2023-07-29T06:22:06;18.00;99.90
29731;DHT22;16639;51.488;0.152;2023-07-29T06:24:34;17.80;99.90
29731;DHT22;16639;51.488;0.152;2023-07-29T06:27:03;17.90;99.90
29731;DHT22;16639;51.488;0.152;2023-07-29T06:29:31;17.90;99.90
29731;DHT22;16639;51.488;0.152;2023-07-29T06:31:58;17.90;99.90
29731;DHT22;16639;51.488;0.152;2023-07-29T06:34:27;17.90;99.90
29731;DHT22;16639;51.488;0.152;2023-07-29T06:36:54;17.90;99.90
29731;DHT22;16639;51.488;0.152;2023-07-29T06:39:22;18.00;99.90
29731;DHT22;16639;51.488;0.152;2023-07-29T06:41:49;18.00;99.90
29731;DHT22;16639;51.488;0.152;2023-07-29T06:44:17;18.00;99.90
29731;DHT22;16639;51.488;0.152;2023-07-29T06:46:45;18.00;99.90
29731;DHT22;16639;51.488;0.152;2023-07-29T06:49:12;17.90;99.90
29731;DHT22;16639;51.488;0.152;2023-07-29T06:51:40;18.00;99.90
29731;DHT22;16639;51.488;0.152;2023-07-29T06:54:07;18.10;99.90
29731;DHT22;16639;51.488;0.152;2023-07-29T06:56:35;18.00;99.90
29731;DHT22;16639;51.488;0.152;2023-07-29T06:59:03;18.00;99.90
29731;DHT22;16639;51.488;0.152;2023-07-29T07:01:30;18.10;99.90
29731;DHT22;16639;51.488;0.152;2023-07-29T07:03:57;18.10;99.90
29731;DHT22;16639;51.488;0.152;2023-07-29T07:06:26;18.20;99.90
29731;DHT22;16639;51.488;0.152;2023-07-29T07:08:55;18.10;99.90
29731;DHT22;16639;51.488;0.152;2023-07-29T07:11:22;18.20;99.90
29731;DHT22;16639;51.488;0.152;2023-07-29T07:13:50;18.20;99.90
29731;DHT22;16639;51.488;0.152;2023-07-29T07:16:20;18.30;99.90
29731;DHT22;16639;51.488;0.152;2023-07-29T07:18:47;20.80;99.90
29731;DHT22;16639;51.488;0.152;2023-07-29T07:21:15;18.40;99.90
29731;DHT22;16639;51.488;0.152;2023-07-29T07:23:42;18.40;99.90
29731;DHT22;16639;51.488;0.152;2023-07-29T07:26:11;18.40;99.90
29731;DHT22;16639;51.488;0.152;2023-07-29T07:28:38;18.50;99.90
29731;DHT22;16639;51.488;0.152;2023-07-29T07:31:06;18.70;99.90
29731;DHT22;16639;51.488;0.152;2023-07-29T07:33:34;18.70;99.90
29731;DHT22;16639;51.488;0.152;2023-07-29T07:36:02;18.80;99.90
29731;DHT22;16639;51.488;0.152;2023-07-29T07:38:30;18.80;99.90
29731;DHT22;16639;51.488;0.152;2023-07-29T07:40:58;18.80;99.90
29731;DHT22;16639;51.488;0.152;2023-07-29T07:43:28;18.80;99.90
29731;DHT22;16639;51.488;0.152;2023-07-29T07:46:00;18.80;99.90
29731;DHT22;16639;51.488;0.152;2023-07-29T07:48:28;18.80;99.90
29731;DHT22;16639;51.488;0.152;2023-07-29T07:50:55;18.90;99.90
29731;DHT22;16639;51.488;0.152;2023-07-29T07:53:23;18.90;99.90
29731;DHT22;16639;51.488;0.152;2023-07-29T07:55:52;18.90;99.90
29731;DHT22;16639;51.488;0.152;2023-07-29T07:58:20;18.90;99.90
29731;DHT22;16639;51.488;0.152;2023-07-29T08:00:49;18.90;99.90
29731;DHT22;16639;51.488;0.152;2023-07-29T08:03:17;18.90;99.90
29731;DHT22;16639;51.488;0.152;2023-07-29T08:05:45;18.90;99.90
29731;DHT22;16639;51.488;0.152;2023-07-29T08:08:12;18.90;99.90
29731;DHT22;16639;51.488;0.152;2023-07-29T08:10:40;19.00;99.90
29731;DHT22;16639;51.488;0.152;2023-07-29T08:13:07;19.00;99.90
29731;DHT22;16639;51.488;0.152;2023-07-29T08:15:35;19.00;99.90
29731;DHT22;16639;51.488;0.152;2023-07-29T08:18:03;18.90;99.90
29731;DHT22;16639;51.488;0.152;2023-07-29T08:20:30;18.80;99.90
29731;DHT22;16639;51.488;0.152;2023-07-29T08:22:58;18.70;99.90
29731;DHT22;16639;51.488;0.152;2023-07-29T08:25:25;18.60;99.90
29731;DHT22;16639;51.488;0.152;2023-07-29T08:27:53;18.40;99.90
29731;DHT22;16639;51.488;0.152;2023-07-29T08:30:20;18.30;99.90
29731;DHT22;16639;51.488;0.152;2023-07-29T08:32:48;18.10;99.90
29731;DHT22;16639;51.488;0.152;2023-07-29T08:35:16;18.10;99.90
29731;DHT22;16639;51.488;0.152;2023-07-29T08:37:43;18.00;99.90
29731;DHT22;16639;51.488;0.152;2023-07-29T08:40:13;17.90;99.90
29731;DHT22;16639;51.488;0.152;2023-07-29T08:42:41;17.90;99.90
29731;DHT22;16639;51.488;0.152;2023-07-29T08:45:12;17.70;99.90
29731;DHT22;16639;51.488;0.152;2023-07-29T08:47:40;17.70;99.90
29731;DHT22;16639;51.488;0.152;2023-07-29T08:50:08;17.60;99.90
29731;DHT22;16639;51.488;0.152;2023-07-29T08:52:40;17.60;99.90
29731;DHT22;16639;51.488;0.152;2023-07-29T08:55:08;17.50;99.90
29731;DHT22;16639;51.488;0.152;2023-07-29T08:57:36;17.40;99.90
29731;DHT22;16639;51.488;0.152;2023-07-29T09:00:04;17.30;99.90
29731;DHT22;16639;51.488;0.152;2023-07-29T09:02:32;17.30;99.90
29731;DHT22;16639;51.488;0.152;2023-07-29T09:05:01;17.20;99.90
29731;DHT22;16639;51.488;0.152;2023-07-29T09:07:29;17.20;99.90
29731;DHT22;16639;51.488;0.152;2023-07-29T09:09:56;17.10;99.90
29731;DHT22;16639;51.488;0.152;2023-07-29T09:12:23;17.20;99.90
29731;DHT22;16639;51.488;0.152;2023-07-29T09:14:54;17.20;99.90
29731;DHT22;16639;51.488;0.152;2023-07-29T09:17:24;17.30;99.90
29731;DHT22;16639;51.488;0.152;2023-07-29T09:19:51;17.40;99.90
29731;DHT22;16639;51.488;0.152;2023-07-29T09:22:22;17.50;99.90
29731;DHT22;16639;51.488;0.152;2023-07-29T09:24:50;17.50;99.90
29731;DHT22;16639;51.488;0.152;2023-07-29T09:27:25;17.50;99.90
29731;DHT22;16639;51.488;0.152;2023-07-29T09:29:54;17.60;99.90
29731;DHT22;16639;51.488;0.152;2023-07-29T09:32:24;17.60;99.90
29731;DHT22;16639;51.488;0.152;2023-07-29T09:34:52;17.60;99.90
29731;DHT22;16639;51.488;0.152;2023-07-29T09:37:23;17.60;99.90
29731;DHT22;16639;51.488;0.152;2023-07-29T09:39:51;17.50;99.90
29731;DHT22;16639;51.488;0.152;2023-07-29T09:42:20;17.50;99.90
29731;DHT22;16639;51.488;0.152;2023-07-29T09:44:51;17.50;99.90
29731;DHT22;16639;51.488;0.152;2023-07-29T09:47:23;17.50;99.90
29731;DHT22;16639;51.488;0.152;2023-07-29T09:49:51;17.60;99.90
29731;DHT22;16639;51.488;0.152;2023-07-29T09:52:20;17.60;99.90
29731;DHT22;16639;51.488;0.152;2023-07-29T09:54:49;17.60;99.90
29731;DHT22;16639;51.488;0.152;2023-07-29T09:57:18;17.70;99.90
29731;DHT22;16639;51.488;0.152;2023-07-29T09:59:56;17.70;99.90
29731;DHT22;16639;51.488;0.152;2023-07-29T10:02:24;18.30;99.90
29731;DHT22;16639;51.488;0.152;2023-07-29T10:04:55;17.60;99.90
29731;DHT22;16639;51.488;0.152;2023-07-29T10:07:24;17.40;99.90
29731;DHT22;16639;51.488;0.152;2023-07-29T10:09:52;17.60;99.90
29731;DHT22;16639;51.488;0.152;2023-07-29T10:12:21;17.70;99.90
29731;DHT22;16639;51.488;0.152;2023-07-29T10:14:50;17.70;99.90
29731;DHT22;16639;51.488;0.152;2023-07-29T10:17:19;17.80;99.90
29731;DHT22;16639;51.488;0.152;2023-07-29T10:19:56;17.80;99.90
29731;DHT22;16639;51.488;0.152;2023-07-29T10:22:28;17.80;99.90
29731;DHT22;16639;51.488;0.152;2023-07-29T10:25:03;17.90;99.90
29731;DHT22;16639;51.488;0.152;2023-07-29T10:27:48;17.90;99.90
29731;DHT22;16639;51.488;0.152;2023-07-29T10:30:17;17.90;99.90
29731;DHT22;16639;51.488;0.152;2023-07-29T10:32:45;18.00;99.90
29731;DHT22;16639;51.488;0.152;2023-07-29T10:35:14;18.00;99.90
29731;DHT22;16639;51.488;0.152;2023-07-29T10:37:45;17.90;99.90
29731;DHT22;16639;51.488;0.152;2023-07-29T10:40:13;17.90;99.90
29731;DHT22;16639;51.488;0.152;2023-07-29T10:43:02;17.90;99.90
29731;DHT22;16639;51.488;0.152;2023-07-29T10:45:37;17.90;99.90
29731;DHT22;16639;51.488;0.152;2023-07-29T10:48:06;18.00;99.90
29731;DHT22;16639;51.488;0.152;2023-07-29T10:50:36;18.00;99.90
29731;DHT22;16639;51.488;0.152;2023-07-29T10:53:03;18.00;99.90
29731;DHT22;16639;51.488;0.152;2023-07-29T10:55:35;18.00;99.90
29731;DHT22;16639;51.488;0.152;2023-07-29T10:58:15;18.20;99.90
29731;DHT22;16639;51.488;0.152;2023-07-29T11:00:46;18.30;99.90
29731;DHT22;16639;51.488;0.152;2023-07-29T11:03:14;18.30;99.90
29731;DHT22;16639;51.488;0.152;2023-07-29T11:05:52;18.30;99.90
29731;DHT22;16639;51.488;0.152;2023-07-29T11:08:20;18.30;99.90
29731;DHT22;16639;51.488;0.152;2023-07-29T11:11:09;18.30;99.90
29731;DHT22;16639;51.488;0.152;2023-07-29T11:13:39;18.40;99.90
29731;DHT22;16639;51.488;0.152;2023-07-29T11:16:09;18.50;99.90
29731;DHT22;16639;51.488;0.152;2023-07-29T11:18:37;18.70;99.90
29731;DHT22;16639;51.488;0.152;2023-07-29T11:21:04;18.80;99.90
29731;DHT22;16639;51.488;0.152;2023-07-29T11:23:34;19.00;99.90
29731;DHT22;16639;51.488;0.152;2023-07-29T11:26:04;19.10;99.90
29731;DHT22;16639;51.488;0.152;2023-07-29T11:28:38;19.20;99.90
29731;DHT22;16639;51.488;0.152;2023-07-29T11:31:06;19.30;99.90
29731;DHT22;16639;51.488;0.152;2023-07-29T11:33:33;19.40;99.90
29731;DHT22;16639;51.488;0.152;2023-07-29T11:36:01;19.40;99.90
29731;DHT22;16639;51.488;0.152;2023-07-29T11:38:28;19.40;99.90
29731;DHT22;16639;51.488;0.152;2023-07-29T11:41:00;19.40;99.90
29731;DHT22;16639;51.488;0.152;2023-07-29T11:43:28;19.40;99.90
29731;DHT22;16639;51.488;0.152;2023-07-29T11:45:56;19.60;99.90
29731;DHT22;16639;51.488;0.152;2023-07-29T11:48:31;19.60;99.90
29731;DHT22;16639;51.488;0.152;2023-07-29T11:51:00;19.70;99.90
29731;DHT22;16639;51.488;0.152;2023-07-29T11:53:30;19.60;99.90
29731;DHT22;16639;51.488;0.152;2023-07-29T11:55:58;19.60;99.90
29731;DHT22;16639;51.488;0.152;2023-07-29T11:58:26;19.70;99.90
29731;DHT22;16639;51.488;0.152;2023-07-29T12:00:54;19.80;99.90
29731;DHT22;16639;51.488;0.152;2023-07-29T12:03:22;19.80;99.90
29731;DHT22;16639;51.488;0.152;2023-07-29T12:05:50;19.70;99.90
29731;DHT22;16639;51.488;0.152;2023-07-29T12:08:17;19.60;99.90
29731;DHT22;16639;51.488;0.152;2023-07-29T12:10:45;19.60;99.90
29731;DHT22;16639;51.488;0.152;2023-07-29T12:13:13;19.60;99.90
29731;DHT22;16639;51.488;0.152;2023-07-29T12:15:42;19.60;99.90
29731;DHT22;16639;51.488;0.152;2023-07-29T12:18:09;19.50;99.90
29731;DHT22;16639;51.488;0.152;2023-07-29T12:20:38;19.60;99.90
29731;DHT22;16639;51.488;0.152;2023-07-29T12:23:05;19.70;99.90
29731;DHT22;16639;51.488;0.152;2023-07-29T12:25:36;19.70;99.90
29731;DHT22;16639;51.488;0.152;2023-07-29T12:28:06;19.70;99.90
29731;DHT22;16639;51.488;0.152;2023-07-29T12:30:41;19.70;99.90
29731;DHT22;16639;51.488;0.152;2023-07-29T12:33:09;19.70;99.90
29731;DHT22;16639;51.488;0.152;2023-07-29T12:35:37;19.80;99.90
29731;DHT22;16639;51.488;0.152;2023-07-29T12:38:05;19.90;99.90
29731;DHT22;16639;51.488;0.152;2023-07-29T12:40:37;20.00;99.90
29731;DHT22;16639;51.488;0.152;2023-07-29T12:43:04;20.00;99.90
29731;DHT22;16639;51.488;0.152;2023-07-29T12:45:36;20.10;99.90
29731;DHT22;16639;51.488;0.152;2023-07-29T12:48:03;20.20;99.90
29731;DHT22;16639;51.488;0.152;2023-07-29T12:50:31;20.20;99.90
29731;DHT22;16639;51.488;0.152;2023-07-29T12:52:59;20.10;99.90
29731;DHT22;16639;51.488;0.152;2023-07-29T12:55:26;20.10;99.90
29731;DHT22;16639;51.488;0.152;2023-07-29T12:57:54;20.10;99.90
29731;DHT22;16639;51.488;0.152;2023-07-29T13:00:22;20.20;99.90
29731;DHT22;16639;51.488;0.152;2023-07-29T13:02:49;20.10;99.90
29731;DHT22;16639;51.488;0.152;2023-07-29T13:05:17;21.80;99.90
29731;DHT22;16639;51.488;0.152;2023-07-29T13:07:45;20.20;99.90
29731;DHT22;16639;51.488;0.152;2023-07-29T13:10:12;20.30;99.90
29731;DHT22;16639;51.488;0.152;2023-07-29T13:12:40;20.40;99.90
29731;DHT22;16639;51.488;0.152;2023-07-29T13:15:08;20.40;99.90
29731;DHT22;16639;51.488;0.152;2023-07-29T13:17:36;20.50;99.90
29731;DHT22;16639;51.488;0.152;2023-07-29T13:20:05;20.50;99.90
29731;DHT22;16639;51.488;0.152;2023-07-29T13:22:33;20.50;99.90
29731;DHT22;16639;51.488;0.152;2023-07-29T13:25:00;20.60;99.90
29731;DHT22;16639;51.488;0.152;2023-07-29T13:27:28;20.70;99.90
29731;DHT22;16639;51.488;0.152;2023-07-29T13:29:56;20.70;99.90
29731;DHT22;16639;51.488;0.152;2023-07-29T13:32:23;20.70;99.90
29731;DHT22;16639;51.488;0.152;2023-07-29T13:34:51;20.60;99.90
29731;DHT22;16639;51.488;0.152;2023-07-29T13:37:19;20.60;99.90
29731;DHT22;16639;51.488;0.152;2023-07-29T13:39:46;20.60;99.90
29731;DHT22;16639;51.488;0.152;2023-07-29T13:42:14;21.00;99.90
29731;DHT22;16639;51.488;0.152;2023-07-29T13:44:41;20.40;99.90
29731;DHT22;16639;51.488;0.152;2023-07-29T13:47:08;20.70;99.90
29731;DHT22;16639;51.488;0.152;2023-07-29T13:49:36;20.70;99.90
29731;DHT22;16639;51.488;0.152;2023-07-29T13:52:03;20.70;99.90
29731;DHT22;16639;51.488;0.152;2023-07-29T13:54:31;20.70;99.90
29731;DHT22;16639;51.488;0.152;2023-07-29T13:56:59;20.70;99.90
29731;DHT22;16639;51.488;0.152;2023-07-29T13:59:27;20.20;99.90
29731;DHT22;16639;51.488;0.152;2023-07-29T14:01:54;20.60;99.90
29731;DHT22;16639;51.488;0.152;2023-07-29T14:04:22;21.00;99.90
29731;DHT22;16639;51.488;0.152;2023-07-29T14:06:49;21.10;99.90
29731;DHT22;16639;51.488;0.152;2023-07-29T14:09:26;21.10;99.90
29731;DHT22;16639;51.488;0.152;2023-07-29T14:11:54;21.20;99.90
29731;DHT22;16639;51.488;0.152;2023-07-29T14:14:22;21.40;99.90
29731;DHT22;16639;51.488;0.152;2023-07-29T14:16:49;21.40;99.90
29731;DHT22;16639;51.488;0.152;2023-07-29T14:19:17;21.20;99.90
29731;DHT22;16639;51.488;0.152;2023-07-29T14:21:45;21.40;99.90
29731;DHT22;16639;51.488;0.152;2023-07-29T14:24:12;21.40;99.90
29731;DHT22;16639;51.488;0.152;2023-07-29T14:26:39;21.40;99.90
29731;DHT22;16639;51.488;0.152;2023-07-29T14:29:07;21.40;99.90
29731;DHT22;16639;51.488;0.152;2023-07-29T14:31:35;21.40;99.90
29731;DHT22;16639;51.488;0.152;2023-07-29T14:34:02;21.50;99.90
29731;DHT22;16639;51.488;0.152;2023-07-29T14:36:30;21.50;99.90
29731;DHT22;16639;51.488;0.152;2023-07-29T14:38:57;21.50;99.90
29731;DHT22;16639;51.488;0.152;2023-07-29T14:41:24;21.60;99.90
29731;DHT22;16639;51.488;0.152;2023-07-29T14:43:52;21.60;99.90
29731;DHT22;16639;51.488;0.152;2023-07-29T14:46:20;21.70;99.90
29731;DHT22;16639;51.488;0.152;2023-07-29T14:48:47;21.80;99.90
29731;DHT22;16639;51.488;0.152;2023-07-29T14:51:14;21.80;99.90
29731;DHT22;16639;51.488;0.152;2023-07-29T14:53:42;21.70;99.90
29731;DHT22;16639;51.488;0.152;2023-07-29T14:56:10;21.60;99.90
29731;DHT22;16639;51.488;0.152;2023-07-29T14:58:38;21.60;99.90
29731;DHT22;16639;51.488;0.152;2023-07-29T15:01:05;21.60;99.90
29731;DHT22;16639;51.488;0.152;2023-07-29T15:03:34;21.70;99.90
29731;DHT22;16639;51.488;0.152;2023-07-29T15:06:01;21.60;99.90
29731;DHT22;16639;51.488;0.152;2023-07-29T15:08:30;21.60;99.90
29731;DHT22;16639;51.488;0.152;2023-07-29T15:10:57;21.70;99.90
29731;DHT22;16639;51.488;0.152;2023-07-29T15:13:26;21.80;99.90
29731;DHT22;16639;51.488;0.152;2023-07-29T15:15:53;21.80;99.90
29731;DHT22;16639;51.488;0.152;2023-07-29T15:18:21;21.70;99.90
29731;DHT22;16639;51.488;0.152;2023-07-29T15:20:48;21.90;99.90
29731;DHT22;16639;51.488;0.152;2023-07-29T15:23:16;21.90;99.90
29731;DHT22;16639;51.488;0.152;2023-07-29T15:25:47;21.90;99.90
29731;DHT22;16639;51.488;0.152;2023-07-29T15:28:16;21.80;99.90
29731;DHT22;16639;51.488;0.152;2023-07-29T15:30:44;21.80;99.90
29731;DHT22;16639;51.488;0.152;2023-07-29T15:33:11;21.80;99.90
29731;DHT22;16639;51.488;0.152;2023-07-29T15:35:39;21.80;99.90
29731;DHT22;16639;51.488;0.152;2023-07-29T15:38:06;21.80;99.90
29731;DHT22;16639;51.488;0.152;2023-07-29T15:40:34;21.80;99.90
29731;DHT22;16639;51.488;0.152;2023-07-29T15:43:01;21.80;99.90
29731;DHT22;16639;51.488;0.152;2023-07-29T15:45:29;21.70;99.90
29731;DHT22;16639;51.488;0.152;2023-07-29T15:47:56;21.70;99.90
29731;DHT22;16639;51.488;0.152;2023-07-29T15:50:24;21.70;99.90